Time;durP1;ratioP1;P1;durP2;ratioP2;P2;SDS_P1;SDS_P2;PMS_P1;PMS_P2;Temp;Humidity;BMP_temperature;BMP_pressure;BME280_temperature;BME280_humidity;BME280_pressure;Samples;Min_cycle;Max_cycle;Signal;HPM_P1;HPM_P2
2023/01/03 00:01:06;;;;;;;;;;;;;;;9.31;100.00;100338.25;5064791;28;19927;-41
2023/01/03 00:03:32;;;;;;;;;;;;;;;9.04;100.00;100338.38;5064782;28;19921;-41
2023/01/03 00:05:57;;;;;;;;;;;;;;;9.74;100.00;100357.69;5064962;28;19920;-41
2023/01/03 00:08:22;;;;;;;;;;;;;;;9.37;100.00;100358.81;5064691;28;20015;-41
2023/01/03 00:10:47;;;;;;;;;;;;;;;9.53;100.00;100364.69;5064726;28;20100;-40
2023/01/03 00:13:12;;;;;;;;;;;;;;;9.36;100.00;100356.22;5064069;28;19917;-40
2023/01/03 00:15:38;;;;;;;;;;;;;;;9.34;100.00;100358.78;5065132;28;20588;-40
2023/01/03 00:18:03;;;;;;;;;;;;;;;9.36;100.00;100359.66;5065753;28;20456;-40
2023/01/03 00:20:29;;;;;;;;;;;;;;;9.56;100.00;100374.97;5054752;28;19931;-41
2023/01/03 00:22:54;;;;;;;;;;;;;;;9.53;100.00;100372.41;5065425;28;20000;-41
2023/01/03 00:25:19;;;;;;;;;;;;;;;9.69;100.00;100375.72;5064146;28;20469;-41
2023/01/03 00:27:44;;;;;;;;;;;;;;;9.74;100.00;100373.13;5064251;28;19932;-41
2023/01/03 00:30:10;;;;;;;;;;;;;;;9.61;100.00;100368.06;5064206;28;19923;-41
2023/01/03 00:32:35;;;;;;;;;;;;;;;9.35;100.00;100364.78;5063011;28;19924;-41
2023/01/03 00:35:00;;;;;;;;;;;;;;;9.65;100.00;100381.78;5064625;28;19925;-40
2023/01/03 00:37:25;;;;;;;;;;;;;;;9.60;100.00;100381.81;5063980;28;20054;-41
2023/01/03 00:39:50;;;;;;;;;;;;;;;9.35;100.00;100369.94;5063338;28;19990;-41
2023/01/03 00:42:16;;;;;;;;;;;;;;;10.38;100.00;100395.84;5063425;28;20307;-41
2023/01/03 00:44:41;;;;;;;;;;;;;;;10.81;100.00;100372.25;5064341;28;19920;-41
2023/01/03 00:47:06;;;;;;;;;;;;;;;10.71;100.00;100336.28;5064881;28;19920;-41
2023/01/03 00:49:31;;;;;;;;;;;;;;;10.55;100.00;100312.41;5061913;28;20007;-40
2023/01/03 00:51:57;;;;;;;;;;;;;;;10.27;100.00;100297.22;5064502;28;20009;-41
2023/01/03 00:54:22;;;;;;;;;;;;;;;10.17;100.00;100291.31;5064221;28;19928;-40
2023/01/03 00:56:47;;;;;;;;;;;;;;;9.80;100.00;100283.91;5063966;28;19927;-41
2023/01/03 00:59:13;;;;;;;;;;;;;;;10.33;100.00;100299.78;5064257;28;19920;-40
2023/01/03 01:01:39;;;;;;;;;;;;;;;10.17;100.00;100295.59;5062708;28;19931;-41
2023/01/03 01:04:06;;;;;;;;;;;;;;;10.22;100.00;100292.13;5064469;28;19931;-41
2023/01/03 01:06:33;;;;;;;;;;;;;;;9.98;100.00;100298.31;5062993;28;19924;-40
2023/01/03 01:08:59;;;;;;;;;;;;;;;9.60;100.00;100294.38;5065134;28;19917;-40
2023/01/03 01:11:25;;;;;;;;;;;;;;;9.99;100.00;100301.75;5067582;28;19926;-40
2023/01/03 01:13:50;;;;;;;;;;;;;;;9.95;100.00;100300.94;5067214;28;20286;-40
2023/01/03 01:16:17;;;;;;;;;;;;;;;9.99;100.00;100302.63;5068486;28;19978;-41
2023/01/03 01:18:42;;;;;;;;;;;;;;;10.38;100.00;100305.72;5066148;28;19920;-41
2023/01/03 01:21:09;;;;;;;;;;;;;;;10.34;100.00;100293.75;5068680;28;19924;-41
2023/01/03 01:23:35;;;;;;;;;;;;;;;11.25;100.00;100297.81;5068007;28;20856;-41
2023/01/03 01:26:01;;;;;;;;;;;;;;;10.83;100.00;100257.13;5067486;28;19959;-41
2023/01/03 01:28:26;;;;;;;;;;;;;;;11.17;100.00;100235.16;5066894;28;20030;-41
2023/01/03 01:30:51;;;;;;;;;;;;;;;10.77;100.00;100209.97;5068353;28;19927;-41
2023/01/03 01:33:17;;;;;;;;;;;;;;;10.61;100.00;100204.16;5067381;28;19920;-41
2023/01/03 01:35:42;;;;;;;;;;;;;;;10.36;100.00;100201.88;5068151;28;19920;-41
2023/01/03 01:38:07;;;;;;;;;;;;;;;10.57;100.00;100215.38;5067510;28;19920;-41
2023/01/03 01:40:32;;;;;;;;;;;;;;;10.12;100.00;100210.69;5067144;28;19920;-41
2023/01/03 01:45:43;;;;;;;;;;;;;;;10.26;100.00;100226.84;5065629;28;21253;-41
2023/01/03 01:48:10;;;;;;;;;;;;;;;9.48;100.00;100206.16;5066464;28;19924;-41
2023/01/03 01:50:38;;;;;;;;;;;;;;;10.22;100.00;100229.47;5066423;28;19928;-41
2023/01/03 01:53:03;;;;;;;;;;;;;;;9.92;100.00;100223.78;5067573;28;19924;-41
2023/01/03 01:55:34;;;;;;;;;;;;;;;9.32;100.00;100221.69;5064377;28;19982;-41
2023/01/03 01:58:00;;;;;;;;;;;;;;;9.62;100.00;100241.19;5067269;28;20214;-41
2023/01/03 02:00:26;;;;;;;;;;;;;;;9.92;100.00;100262.38;5066031;28;19920;-41
2023/01/03 02:02:51;;;;;;;;;;;;;;;10.20;100.00;100249.25;5064788;28;19921;-41
2023/01/03 02:05:17;;;;;;;;;;;;;;;9.53;100.00;100251.53;5063246;28;19916;-40
2023/01/03 02:07:42;;;;;;;;;;;;;;;9.23;100.00;100255.19;5064766;28;19916;-41
2023/01/03 02:10:09;;;;;;;;;;;;;;;8.83;100.00;100264.84;5066608;28;19983;-41
2023/01/03 02:15:26;;;;;;;;;;;;;;;8.84;100.00;100299.94;5065493;28;20408;-40
2023/01/03 02:17:57;;;;;;;;;;;;;;;9.11;100.00;100324.66;5066372;28;19920;-41
2023/01/03 02:20:22;;;;;;;;;;;;;;;8.84;100.00;100321.31;5065344;28;20639;-41
2023/01/03 02:23:06;;;;;;;;;;;;;;;8.97;100.00;100335.00;5067069;28;19913;-40
2023/01/03 02:25:50;;;;;;;;;;;;;;;9.53;100.00;100341.53;5067038;28;19916;-41
2023/01/03 02:28:24;;;;;;;;;;;;;;;8.98;100.00;100334.13;5066596;28;19955;-41
2023/01/03 02:30:51;;;;;;;;;;;;;;;9.71;100.00;100337.16;5065659;28;19981;-41
2023/01/03 02:33:30;;;;;;;;;;;;;;;9.60;100.00;100335.50;5064760;28;19916;-41
2023/01/03 02:36:14;;;;;;;;;;;;;;;10.27;100.00;100328.13;5066115;28;19943;-41
2023/01/03 02:39:00;;;;;;;;;;;;;;;9.49;100.00;100291.00;5065396;28;19928;-41
2023/01/03 02:41:38;;;;;;;;;;;;;;;9.78;100.00;100305.34;5059871;28;20353;-41
2023/01/03 02:44:12;;;;;;;;;;;;;;;9.30;100.00;100304.84;5065423;28;19952;-41
2023/01/03 02:47:10;;;;;;;;;;;;;;;9.92;100.00;100319.00;5066372;28;20026;-40
2023/01/03 02:49:40;;;;;;;;;;;;;;;9.26;100.00;100304.00;5044957;28;19981;-41
2023/01/03 02:52:07;;;;;;;;;;;;;;;8.91;100.00;100301.59;5066046;28;19924;-41
2023/01/03 02:54:35;;;;;;;;;;;;;;;8.59;100.00;100305.16;5063338;28;20023;-41
2023/01/03 02:57:03;;;;;;;;;;;;;;;8.57;100.00;100327.41;5065196;28;19928;-41
2023/01/03 02:59:35;;;;;;;;;;;;;;;8.38;100.00;100331.69;5065891;28;19915;-41
2023/01/03 03:02:01;;;;;;;;;;;;;;;8.49;100.00;100344.56;5066415;28;20037;-41
2023/01/03 03:04:26;;;;;;;;;;;;;;;8.42;100.00;100350.56;5064618;28;20033;-41
2023/01/03 03:07:02;;;;;;;;;;;;;;;8.43;100.00;100359.97;5065739;28;20468;-41
2023/01/03 03:09:28;;;;;;;;;;;;;;;8.58;100.00;100370.22;5064616;28;20345;-41
2023/01/03 03:14:42;;;;;;;;;;;;;;;8.90;100.00;100392.41;5065749;28;19994;-41
2023/01/03 03:17:08;;;;;;;;;;;;;;;8.64;100.00;100385.59;5065487;28;19928;-41
2023/01/03 03:25:22;;;;;;;;;;;;;;;8.68;100.00;100407.84;5065713;28;20007;-41
2023/01/03 03:30:31;;;;;;;;;;;;;;;9.02;100.00;100382.06;5064905;28;20356;-41
2023/01/03 03:32:58;;;;;;;;;;;;;;;8.81;100.00;100377.84;5065106;28;20237;-41
2023/01/03 03:35:23;;;;;;;;;;;;;;;9.30;100.00;100374.25;5063929;28;19924;-40
2023/01/03 03:37:48;;;;;;;;;;;;;;;9.27;100.00;100364.00;5064359;28;19917;-41
2023/01/03 03:45:46;;;;;;;;;;;;;;;9.04;100.00;100333.25;5065820;28;19927;-41
2023/01/03 03:48:24;;;;;;;;;;;;;;;9.12;100.00;100322.09;5065839;28;19928;-41
2023/01/03 03:51:02;;;;;;;;;;;;;;;8.94;100.00;100311.84;5065347;28;19916;-41
2023/01/03 03:53:29;;;;;;;;;;;;;;;8.68;100.00;100294.84;5064059;28;20338;-41
2023/01/03 03:55:59;;;;;;;;;;;;;;;8.67;100.00;100294.88;5062737;28;20009;-41
2023/01/03 03:58:50;;;;;;;;;;;;;;;8.87;100.00;100305.03;5039759;28;20381;-41
2023/01/03 04:01:17;;;;;;;;;;;;;;;8.96;100.00;100308.44;5062184;28;20408;-41
2023/01/03 04:03:42;;;;;;;;;;;;;;;8.70;100.00;100318.81;5065449;28;19916;-41
2023/01/03 04:06:12;;;;;;;;;;;;;;;9.14;100.00;100322.91;5065292;28;20366;-41
2023/01/03 04:08:38;;;;;;;;;;;;;;;9.06;100.00;100311.81;5064294;28;20307;-41
2023/01/03 04:11:06;;;;;;;;;;;;;;;9.34;100.00;100306.53;5065787;28;19916;-41
2023/01/03 04:13:32;;;;;;;;;;;;;;;9.62;100.00;100304.63;5065133;28;20063;-41
2023/01/03 04:15:57;;;;;;;;;;;;;;;9.66;100.00;100274.59;5065673;28;19920;-41
2023/01/03 04:18:22;;;;;;;;;;;;;;;9.97;100.00;100272.63;5064681;28;20369;-41
2023/01/03 04:20:47;;;;;;;;;;;;;;;10.06;100.00;100257.09;5064887;28;20316;-41
2023/01/03 04:23:13;;;;;;;;;;;;;;;10.26;100.00;100225.97;5066881;28;19916;-41
2023/01/03 04:25:38;;;;;;;;;;;;;;;9.79;100.00;100214.47;5064654;28;20007;-41
2023/01/03 04:28:03;;;;;;;;;;;;;;;9.98;100.00;100208.25;5066063;28;19920;-41
2023/01/03 04:30:29;;;;;;;;;;;;;;;9.89;100.00;100202.38;5065229;28;19977;-41
2023/01/03 04:32:55;;;;;;;;;;;;;;;9.99;100.00;100186.81;5065171;28;19927;-41
2023/01/03 04:35:20;;;;;;;;;;;;;;;9.90;100.00;100183.47;5065392;28;20552;-41
2023/01/03 04:37:45;;;;;;;;;;;;;;;9.38;100.00;100166.81;5064104;28;19920;-41
2023/01/03 04:40:11;;;;;;;;;;;;;;;9.56;100.00;100181.25;5064622;28;19915;-41
2023/01/03 04:45:20;;;;;;;;;;;;;;;9.55;100.00;100182.94;5068032;28;19963;-41
2023/01/03 04:47:45;;;;;;;;;;;;;;;9.69;100.00;100176.81;5067724;28;20385;-41
2023/01/03 04:50:10;;;;;;;;;;;;;;;9.93;100.00;100168.88;5064202;28;20577;-41
2023/01/03 04:52:35;;;;;;;;;;;;;;;9.83;100.00;100167.28;5068290;28;20300;-41
2023/01/03 04:55:01;;;;;;;;;;;;;;;9.79;100.00;100155.31;5067880;28;20344;-41
2023/01/03 04:57:26;;;;;;;;;;;;;;;9.95;100.00;100145.69;5069438;28;19965;-41
2023/01/03 04:59:51;;;;;;;;;;;;;;;9.71;100.00;100132.22;5069541;28;19927;-41
2023/01/03 05:02:16;;;;;;;;;;;;;;;9.86;100.00;100131.22;5067683;28;20590;-41
2023/01/03 05:04:42;;;;;;;;;;;;;;;9.73;100.00;100124.47;5069315;28;20461;-41
2023/01/03 05:07:07;;;;;;;;;;;;;;;9.75;100.00;100123.59;5067997;28;20284;-41
2023/01/03 05:09:32;;;;;;;;;;;;;;;9.69;100.00;100122.81;5068195;28;19946;-41
2023/01/03 05:11:57;;;;;;;;;;;;;;;9.59;100.00;100120.31;5069507;28;19918;-41
2023/01/03 05:14:23;;;;;;;;;;;;;;;9.69;100.00;100117.66;5068111;28;19947;-41
2023/01/03 05:16:48;;;;;;;;;;;;;;;9.70;100.00;100125.38;5069423;28;20033;-41
2023/01/03 05:19:13;;;;;;;;;;;;;;;9.18;100.00;100128.44;5067299;28;20011;-41
2023/01/03 05:27:06;;;;;;;;;;;;;;;9.54;100.00;100139.25;5069604;28;20023;-41
2023/01/03 05:29:31;;;;;;;;;;;;;;;9.49;100.00;100136.72;5068255;28;20763;-41
2023/01/03 05:31:56;;;;;;;;;;;;;;;9.12;100.00;100137.06;5069342;28;19925;-41
2023/01/03 05:34:22;;;;;;;;;;;;;;;8.88;100.00;100132.09;5068587;28;19920;-41
2023/01/03 05:36:47;;;;;;;;;;;;;;;8.88;100.00;100158.63;5069475;28;20005;-41
2023/01/03 05:39:12;;;;;;;;;;;;;;;8.98;100.00;100164.53;5067505;28;19920;-41
2023/01/03 05:44:21;;;;;;;;;;;;;;;9.03;100.00;100165.34;5068270;28;21400;-41
2023/01/03 05:46:47;;;;;;;;;;;;;;;9.03;100.00;100167.91;5066489;28;19924;-41
2023/01/03 05:49:12;;;;;;;;;;;;;;;8.49;100.00;100159.72;5065886;28;20775;-41
2023/01/03 05:51:37;;;;;;;;;;;;;;;9.04;100.00;100177.34;5067797;28;19959;-41
2023/01/03 05:54:03;;;;;;;;;;;;;;;8.38;100.00;100152.84;5059866;28;19962;-41
2023/01/03 05:56:29;;;;;;;;;;;;;;;8.64;100.00;100169.88;5064058;28;20278;-41
2023/01/03 05:58:54;;;;;;;;;;;;;;;8.93;100.00;100171.44;5065998;28;19920;-41
2023/01/03 06:01:19;;;;;;;;;;;;;;;9.00;100.00;100162.81;5067651;28;20023;-41
2023/01/03 06:03:46;;;;;;;;;;;;;;;8.70;100.00;100169.84;5068002;28;20035;-41
2023/01/03 06:06:12;;;;;;;;;;;;;;;8.84;100.00;100167.19;5068387;28;20216;-41
2023/01/03 06:08:38;;;;;;;;;;;;;;;8.81;100.00;100171.53;5066759;28;20362;-41
2023/01/03 06:11:04;;;;;;;;;;;;;;;8.52;100.00;100182.78;5067249;28;19927;-41
2023/01/03 06:13:29;;;;;;;;;;;;;;;8.76;100.00;100190.38;5067416;28;19951;-41
2023/01/03 06:18:38;;;;;;;;;;;;;;;8.91;100.00;100186.00;5067369;28;19977;-41
2023/01/03 06:21:03;;;;;;;;;;;;;;;8.78;100.00;100180.06;5068378;28;19924;-41
2023/01/03 06:23:28;;;;;;;;;;;;;;;8.83;100.00;100174.94;5066408;28;19976;-41
2023/01/03 06:25:54;;;;;;;;;;;;;;;8.60;100.00;100181.03;5066253;28;19959;-41
2023/01/03 06:28:19;;;;;;;;;;;;;;;8.86;100.00;100182.63;5068081;28;19922;-41
2023/01/03 06:30:44;;;;;;;;;;;;;;;8.79;100.00;100184.38;5068841;28;20007;-41
2023/01/03 06:33:10;;;;;;;;;;;;;;;8.94;100.00;100178.25;5066954;28;20000;-41
2023/01/03 06:35:37;;;;;;;;;;;;;;;8.87;100.00;100171.47;5066395;28;19920;-41
2023/01/03 06:38:02;;;;;;;;;;;;;;;8.65;100.00;100184.44;5064922;28;20050;-41
2023/01/03 06:40:27;;;;;;;;;;;;;;;8.78;100.00;100175.81;5066986;28;20396;-41
2023/01/03 06:42:52;;;;;;;;;;;;;;;8.84;100.00;100181.75;5066552;28;20304;-41
2023/01/03 06:53:32;;;;;;;;;;;;;;;8.05;100.00;100181.22;5067790;28;19926;-41
2023/01/03 06:55:58;;;;;;;;;;;;;;;8.30;100.00;100194.81;5066055;28;20284;-41
2023/01/03 06:58:23;;;;;;;;;;;;;;;8.30;100.00;100211.09;5066259;28;19920;-41
2023/01/03 07:00:48;;;;;;;;;;;;;;;8.10;100.00;100210.28;5066822;28;19921;-41
2023/01/03 07:03:13;;;;;;;;;;;;;;;7.96;100.00;100225.72;5066542;28;20783;-41
2023/01/03 07:05:39;;;;;;;;;;;;;;;8.07;100.00;100233.38;5068227;28;19927;-41
2023/01/03 07:08:04;;;;;;;;;;;;;;;8.05;100.00;100247.91;5067045;28;19925;-41
2023/01/03 07:10:29;;;;;;;;;;;;;;;8.01;100.00;100259.91;5065644;28;19959;-41
2023/01/03 07:15:42;;;;;;;;;;;;;;;7.89;100.00;100268.47;5066995;28;19987;-40
2023/01/03 07:18:07;;;;;;;;;;;;;;;7.92;100.00;100281.28;5065641;28;20847;-40
2023/01/03 07:20:32;;;;;;;;;;;;;;;7.72;100.00;100288.13;5064015;28;19920;-41
2023/01/03 07:22:57;;;;;;;;;;;;;;;7.84;100.00;100298.38;5048476;28;19921;-40
2023/01/03 07:25:22;;;;;;;;;;;;;;;6.79;100.00;100291.31;5066321;28;19920;-40
2023/01/03 07:27:55;;;;;;;;;;;;;;;7.83;100.00;100327.44;5065850;28;20366;-40
2023/01/03 07:30:20;;;;;;;;;;;;;;;7.83;100.00;100342.00;5064467;28;19921;-40
2023/01/03 07:32:45;;;;;;;;;;;;;;;7.85;100.00;100348.81;5065059;28;19978;-40
2023/01/03 07:35:10;;;;;;;;;;;;;;;7.81;100.00;100343.69;5064856;28;19928;-40
2023/01/03 07:37:36;;;;;;;;;;;;;;;7.87;100.00;100359.94;5065562;28;19923;-40
2023/01/03 07:40:01;;;;;;;;;;;;;;;7.25;100.00;100353.84;5066094;28;19978;-40
2023/01/03 07:45:10;;;;;;;;;;;;;;;7.41;100.00;100375.25;5064020;28;20506;-41
2023/01/03 07:47:35;;;;;;;;;;;;;;;7.70;100.00;100397.53;5065925;28;19920;-40
2023/01/03 07:50:00;;;;;;;;;;;;;;;7.78;100.00;100389.84;5062910;28;20297;-40
2023/01/03 07:52:26;;;;;;;;;;;;;;;8.11;100.00;100404.41;5065025;28;19924;-40
2023/01/03 07:54:51;;;;;;;;;;;;;;;8.58;100.00;100401.03;5066512;28;19925;-40
2023/01/03 07:57:16;;;;;;;;;;;;;;;8.57;100.00;100389.03;5064322;28;19981;-41
2023/01/03 07:59:42;;;;;;;;;;;;;;;8.52;100.00;100380.47;5065421;28;19977;-40
2023/01/03 08:02:07;;;;;;;;;;;;;;;8.40;100.00;100362.50;5065385;28;19923;-41
2023/01/03 08:04:32;;;;;;;;;;;;;;;8.49;100.00;100375.34;5066341;28;20018;-40
2023/01/03 08:06:57;;;;;;;;;;;;;;;9.06;100.00;100376.06;5064699;28;20503;-40
2023/01/03 08:14:51;;;;;;;;;;;;;;;8.16;100.00;100354.81;5065534;28;19926;-40
2023/01/03 08:17:16;;;;;;;;;;;;;;;8.40;100.00;100360.81;5066903;28;19963;-40
2023/01/03 08:19:41;;;;;;;;;;;;;;;8.47;100.00;100377.06;5062883;28;19958;-40
2023/01/03 08:22:07;;;;;;;;;;;;;;;8.70;100.00;100383.00;5066204;28;19962;-40
2023/01/03 08:24:32;;;;;;;;;;;;;;;8.52;100.00;100370.22;5066023;28;19966;-40
2023/01/03 08:26:57;;;;;;;;;;;;;;;8.72;100.00;100383.88;5064598;28;19958;-40
2023/01/03 08:29:22;;;;;;;;;;;;;;;8.17;100.00;100373.63;5066365;28;19959;-40
2023/01/03 08:31:50;;;;;;;;;;;;;;;8.51;100.00;100382.19;5064658;28;20399;-40
2023/01/03 08:34:15;;;;;;;;;;;;;;;9.10;100.00;100388.06;5064553;28;20007;-40
2023/01/03 08:36:45;;;;;;;;;;;;;;;9.13;100.00;100377.75;5065002;28;20461;-40
2023/01/03 08:39:12;;;;;;;;;;;;;;;8.88;100.00;100364.13;5064992;28;20022;-40
2023/01/03 08:41:39;;;;;;;;;;;;;;;9.02;100.00;100365.81;5066161;28;20270;-40
2023/01/03 08:44:04;;;;;;;;;;;;;;;9.37;100.00;100379.38;5064429;28;20409;-40
2023/01/03 08:46:31;;;;;;;;;;;;;;;9.43;100.00;100371.59;5065875;28;19924;-40
2023/01/03 08:48:57;;;;;;;;;;;;;;;9.69;100.00;100372.31;5063693;28;19978;-40
2023/01/03 08:51:25;;;;;;;;;;;;;;;9.68;100.00;100368.03;5062641;28;19928;-40
2023/01/03 08:53:50;;;;;;;;;;;;;;;9.66;100.00;100360.31;5063598;28;19927;-40
2023/01/03 08:56:17;;;;;;;;;;;;;;;9.40;100.00;100353.63;5064386;28;19916;-40
2023/01/03 08:58:42;;;;;;;;;;;;;;;9.59;100.00;100362.09;5065041;28;20420;-40
2023/01/03 09:01:10;;;;;;;;;;;;;;;9.96;100.00;100364.41;5065724;28;19928;-40
2023/01/03 09:03:35;;;;;;;;;;;;;;;8.60;100.00;100327.41;5065463;28;19920;-40
2023/01/03 09:06:01;;;;;;;;;;;;;;;9.15;100.00;100365.75;5066399;28;19986;-40
2023/01/03 09:08:28;;;;;;;;;;;;;;;9.33;100.00;100371.69;5064725;28;19980;-40
2023/01/03 09:10:53;;;;;;;;;;;;;;;8.74;100.00;100381.31;5066399;28;19981;-40
2023/01/03 09:13:19;;;;;;;;;;;;;;;9.00;100.00;100404.34;5064759;28;20002;-40
2023/01/03 09:15:44;;;;;;;;;;;;;;;8.85;100.00;100404.38;5063400;28;19935;-40
2023/01/03 09:18:09;;;;;;;;;;;;;;;9.13;100.00;100403.44;5056475;28;19931;-40
2023/01/03 09:20:34;;;;;;;;;;;;;;;8.74;100.00;100410.41;5063965;28;19920;-40
2023/01/03 09:23:00;;;;;;;;;;;;;;;8.96;100.00;100423.19;5065013;28;19924;-40
2023/01/03 09:25:25;;;;;;;;;;;;;;;9.43;100.00;100424.75;5063698;28;20011;-40
2023/01/03 09:27:50;;;;;;;;;;;;;;;9.12;100.00;100408.59;5064547;28;19960;-40
2023/01/03 09:30:16;;;;;;;;;;;;;;;9.57;100.00;100424.69;5067503;28;19947;-40
2023/01/03 09:32:41;;;;;;;;;;;;;;;9.56;100.00;100403.25;5067019;28;19966;-40
2023/01/03 09:35:07;;;;;;;;;;;;;;;9.43;100.00;100404.19;5068586;28;19946;-40
2023/01/03 09:37:32;;;;;;;;;;;;;;;9.46;100.00;100414.44;5068855;28;20016;-40
2023/01/03 09:39:57;;;;;;;;;;;;;;;8.84;100.00;100405.25;5068851;28;19962;-40
2023/01/03 09:45:12;;;;;;;;;;;;;;;9.63;100.00;100427.22;5067432;28;19950;-40
2023/01/03 09:47:37;;;;;;;;;;;;;;;9.53;100.00;100418.69;5066216;28;20007;-40
2023/01/03 09:50:02;;;;;;;;;;;;;;;9.50;100.00;100423.84;5066376;28;19920;-40
2023/01/03 10:03:43;;;;;;;;;;;;;;;10.11;100.00;100406.34;5063409;28;20561;-40
2023/01/03 10:06:14;;;;;;;;;;;;;;;9.93;100.00;100385.03;5066803;28;19920;-40
2023/01/03 10:08:45;;;;;;;;;;;;;;;9.72;100.00;100395.47;5065957;28;20003;-40
2023/01/03 10:11:30;;;;;;;;;;;;;;;10.38;100.00;100406.16;5065258;28;20013;-40
2023/01/03 10:14:14;;;;;;;;;;;;;;;10.35;100.00;100403.59;5048719;28;19931;-40
2023/01/03 10:16:46;;;;;;;;;;;;;;;10.38;100.00;100402.72;5065149;28;20441;-40
2023/01/03 10:19:24;;;;;;;;;;;;;;;10.73;100.00;100379.19;5063354;28;19986;-40
2023/01/03 10:22:07;;;;;;;;;;;;;;;10.63;100.00;100357.00;5066031;28;19927;-40
2023/01/03 10:24:40;;;;;;;;;;;;;;;10.79;100.00;100355.94;5065432;28;19961;-40
2023/01/03 10:27:14;;;;;;;;;;;;;;;10.35;100.00;100346.09;5064890;28;19924;-40
2023/01/03 10:29:40;;;;;;;;;;;;;;;11.38;100.00;100357.78;5069527;28;19959;-40
2023/01/03 10:32:05;;;;;;;;;;;;;;;11.38;100.00;100347.47;5068166;28;20586;-40
2023/01/03 10:34:30;;;;;;;;;;;;;;;11.48;100.00;100339.59;5067211;28;20765;-40
2023/01/03 10:36:55;;;;;;;;;;;;;;;11.46;100.00;100319.84;5070434;28;19935;-40
2023/01/03 10:39:27;;;;;;;;;;;;;;;11.30;100.00;100317.50;5063873;28;19916;-40
2023/01/03 10:41:54;;;;;;;;;;;;;;;11.79;100.00;100327.97;5065250;28;19946;-40
2023/01/03 10:44:24;;;;;;;;;;;;;;;11.86;100.00;100306.31;5065878;28;19959;-41
2023/01/03 10:46:52;;;;;;;;;;;;;;;11.56;100.00;100295.63;5067350;28;20035;-40
2023/01/03 10:49:19;;;;;;;;;;;;;;;11.98;100.00;100290.69;5064467;28;20633;-40
2023/01/03 10:51:59;;;;;;;;;;;;;;;11.53;100.00;100262.13;5067209;28;20304;-40
2023/01/03 10:54:27;;;;;;;;;;;;;;;11.49;100.00;100263.06;5066234;28;19935;-40
2023/01/03 10:56:54;;;;;;;;;;;;;;;11.10;100.00;100273.06;5064662;28;20223;-40
2023/01/03 10:59:25;;;;;;;;;;;;;;;11.42;100.00;100267.44;5065413;28;20674;-40
2023/01/03 11:01:57;;;;;;;;;;;;;;;11.76;100.00;100263.50;5072166;28;19920;-40
2023/01/03 11:04:23;;;;;;;;;;;;;;;11.48;100.00;100251.03;5066934;28;19920;-40
2023/01/03 11:07:07;;;;;;;;;;;;;;;11.54;100.00;100258.69;5066424;28;19923;-40
2023/01/03 11:09:42;;;;;;;;;;;;;;;11.97;100.00;100263.16;5065596;28;20386;-40
2023/01/03 11:12:18;;;;;;;;;;;;;;;11.47;100.00;100263.09;5068592;28;19916;-40
2023/01/03 11:14:51;;;;;;;;;;;;;;;12.00;100.00;100257.94;5065116;28;19931;-40
2023/01/03 11:17:17;;;;;;;;;;;;;;;11.69;100.00;100255.84;5066631;28;19968;-40
2023/01/03 11:19:42;;;;;;;;;;;;;;;11.96;100.00;100248.56;5065088;28;19941;-40
2023/01/03 11:22:23;;;;;;;;;;;;;;;11.82;100.00;100246.19;5065079;28;19928;-40
2023/01/03 11:24:52;;;;;;;;;;;;;;;11.58;100.00;100252.59;5061989;28;19920;-40
2023/01/03 11:27:36;;;;;;;;;;;;;;;11.93;100.00;100264.09;5065731;28;19920;-40
2023/01/03 11:30:01;;;;;;;;;;;;;;;11.77;100.00;100252.28;5066087;28;19927;-40
2023/01/03 11:32:35;;;;;;;;;;;;;;;12.11;100.00;100253.44;5064696;28;19920;-40
2023/01/03 11:35:19;;;;;;;;;;;;;;;11.54;100.00;100235.47;5065562;28;20057;-39
2023/01/03 11:38:03;;;;;;;;;;;;;;;11.83;100.00;100236.69;5066134;28;19950;-40
2023/01/03 11:40:40;;;;;;;;;;;;;;;11.80;100.00;100239.34;5065340;28;19928;-40
2023/01/03 11:43:08;;;;;;;;;;;;;;;11.88;100.00;100237.50;5044981;28;19924;-40
2023/01/03 11:45:52;;;;;;;;;;;;;;;11.88;100.00;100209.09;5064505;28;19920;-40
2023/01/03 11:48:18;;;;;;;;;;;;;;;11.43;100.00;100211.56;5064884;28;19978;-40
2023/01/03 11:50:53;;;;;;;;;;;;;;;12.28;100.00;100214.38;5066450;28;19916;-40
2023/01/03 11:53:34;;;;;;;;;;;;;;;11.89;100.00;100179.84;5064443;28;19920;-40
2023/01/03 11:55:59;;;;;;;;;;;;;;;12.04;100.00;100189.03;5065095;28;19921;-40
2023/01/03 11:58:43;;;;;;;;;;;;;;;12.07;100.00;100182.09;5065412;28;19928;-40
2023/01/03 12:01:23;;;;;;;;;;;;;;;12.54;100.00;100177.69;5065565;28;20489;-40
2023/01/03 12:03:54;;;;;;;;;;;;;;;12.43;100.00;100158.09;5066018;28;19920;-40
2023/01/03 12:06:28;;;;;;;;;;;;;;;12.18;100.00;100150.00;5065708;28;19927;-40
2023/01/03 12:08:54;;;;;;;;;;;;;;;12.05;100.00;100152.84;5063498;28;19925;-40
2023/01/03 12:11:29;;;;;;;;;;;;;;;12.91;100.00;100155.34;5064755;28;19931;-40
2023/01/03 12:13:57;;;;;;;;;;;;;;;12.26;100.00;100137.81;5063596;28;21106;-40
2023/01/03 12:16:25;;;;;;;;;;;;;;;11.91;100.00;100131.63;5064872;28;19923;-40
2023/01/03 12:18:53;;;;;;;;;;;;;;;12.38;100.00;100152.19;5063441;28;20344;-40
2023/01/03 12:21:19;;;;;;;;;;;;;;;12.45;100.00;100143.44;5065034;28;20002;-40
2023/01/03 12:23:47;;;;;;;;;;;;;;;12.61;100.00;100149.13;5063810;28;19924;-40
2023/01/03 12:26:13;;;;;;;;;;;;;;;12.23;100.00;100143.06;5065279;28;20377;-40
2023/01/03 12:28:43;;;;;;;;;;;;;;;12.86;100.00;100144.25;5062769;28;19920;-40
2023/01/03 12:31:11;;;;;;;;;;;;;;;13.12;100.00;100134.16;5063629;28;19963;-41
2023/01/03 12:34:09;;;;;;;;;;;;;;;13.04;100.00;100117.94;5064883;28;20396;-40
2023/01/03 12:36:49;;;;;;;;;;;;;;;12.58;100.00;100118.19;5046876;28;19969;-40
2023/01/03 12:39:20;;;;;;;;;;;;;;;11.98;100.00;100125.47;5065002;28;19931;-40
2023/01/03 12:42:00;;;;;;;;;;;;;;;12.08;100.00;100144.19;5054132;28;19979;-40
2023/01/03 12:44:36;;;;;;;;;;;;;;;11.85;100.00;100144.59;5063841;28;20471;-40
2023/01/03 12:47:01;;;;;;;;;;;;;;;11.80;100.00;100144.69;5063028;28;19974;-40
2023/01/03 12:49:48;;;;;;;;;;;;;;;12.47;100.00;100147.69;5062383;28;19924;-40
2023/01/03 12:52:14;;;;;;;;;;;;;;;13.00;100.00;100138.75;5063347;28;20161;-40
2023/01/03 12:54:48;;;;;;;;;;;;;;;12.43;100.00;100120.22;5054205;28;19938;-40
2023/01/03 12:57:20;;;;;;;;;;;;;;;12.41;100.00;100129.75;5063109;28;19920;-41
2023/01/03 13:00:04;;;;;;;;;;;;;;;12.16;100.00;100124.25;5063697;28;20372;-40
2023/01/03 13:02:41;;;;;;;;;;;;;;;12.75;100.00;100114.34;5065379;28;20401;-40
2023/01/03 13:05:25;;;;;;;;;;;;;;;12.48;100.00;100107.22;5070167;28;19921;-40
2023/01/03 13:08:13;;;;;;;;;;;;;;;13.11;100.00;100097.97;5072814;28;19962;-40
2023/01/03 13:10:39;;;;;;;;;;;;;;;12.95;100.00;100088.03;5039823;28;19931;-40
2023/01/03 13:13:04;;;;;;;;;;;;;;;12.74;100.00;100083.34;5065292;28;19920;-40
2023/01/03 13:15:30;;;;;;;;;;;;;;;13.09;100.00;100066.13;5066152;28;19931;-40
2023/01/03 13:18:15;;;;;;;;;;;;;;;13.02;100.00;100059.41;5065983;28;19921;-40
2023/01/03 13:20:40;;;;;;;;;;;;;;;13.13;100.00;100060.81;5069482;28;19920;-40
2023/01/03 13:23:20;;;;;;;;;;;;;;;12.97;100.00;100055.19;5067153;28;19927;-40
2023/01/03 13:26:05;;;;;;;;;;;;;;;12.61;100.00;100046.59;5069827;28;20001;-40
2023/01/03 13:28:31;;;;;;;;;;;;;;;12.96;100.00;100058.69;5066469;28;19917;-40
2023/01/03 13:31:13;;;;;;;;;;;;;;;13.25;100.00;100048.47;5067623;28;19926;-40
2023/01/03 13:33:57;;;;;;;;;;;;;;;13.30;100.00;100037.16;5068123;28;20945;-40
2023/01/03 13:36:23;;;;;;;;;;;;;;;12.78;100.00;100007.44;5057967;28;19962;-40
2023/01/03 13:38:48;;;;;;;;;;;;;;;13.21;100.00;100027.03;5067472;28;20023;-40
2023/01/03 13:41:29;;;;;;;;;;;;;;;13.05;100.00;100012.81;5067748;28;19974;-40
2023/01/03 13:43:54;;;;;;;;;;;;;;;12.93;100.00;100003.59;5068203;28;19927;-40
2023/01/03 13:46:30;;;;;;;;;;;;;;;13.06;100.00;100002.41;5066554;28;19924;-40
2023/01/03 13:48:55;;;;;;;;;;;;;;;13.13;100.00;99992.75;5064768;28;19935;-40